Time;durP1;ratioP1;P1;durP2;ratioP2;P2;SDS_P1;SDS_P2;PMS_P1;PMS_P2;Temp;Humidity;BMP_temperature;BMP_pressure;BME280_temperature;BME280_humidity;BME280_pressure;Samples;Min_cycle;Max_cycle;Signal;HPM_P1;HPM_P2
2023/07/30 00:04:14;;;;;;;8.35;4.72;;;;;;;18.70;75.97;97427.06;10323131;28;20021;-52
2023/07/30 00:09:13;;;;;;;5.95;4.85;;;;;;;18.55;76.77;97428.44;10323969;28;20128;-50
2023/07/30 00:14:12;;;;;;;6.82;4.93;;;;;;;18.37;77.57;97430.88;10324029;28;20032;-51
2023/07/30 00:19:11;;;;;;;9.05;5.20;;;;;;;18.38;77.13;97434.34;10314019;28;20037;-50
2023/07/30 00:24:10;;;;;;;8.10;5.32;;;;;;;18.26;77.68;97430.41;10283497;28;20026;-52
2023/07/30 00:29:09;;;;;;;8.80;4.90;;;;;;;18.20;77.40;97425.41;10285768;28;20116;-52
2023/07/30 00:34:08;;;;;;;5.45;4.32;;;;;;;18.13;77.09;97414.25;10285112;28;20033;-52
2023/07/30 00:39:07;;;;;;;6.15;4.32;;;;;;;18.10;76.81;97411.72;10286554;28;20061;-51
2023/07/30 00:44:06;;;;;;;6.78;4.60;;;;;;;18.10;76.33;97411.72;10285880;28;20596;-51
2023/07/30 00:49:05;;;;;;;7.38;4.47;;;;;;;18.05;76.19;97413.66;10286879;28;20069;-51
2023/07/30 00:54:04;;;;;;;8.23;4.60;;;;;;;18.00;76.36;97415.59;10292477;28;20040;-51
2023/07/30 00:59:03;;;;;;;7.20;4.65;;;;;;;17.96;76.36;97414.88;10292849;28;20061;-52
2023/07/30 01:04:02;;;;;;;6.32;4.90;;;;;;;17.96;77.06;97403.50;10292694;28;20423;-52
2023/07/30 01:09:01;;;;;;;8.23;5.70;;;;;;;17.87;77.33;97412.59;10292418;28;20530;-51
2023/07/30 01:14:01;;;;;;;7.18;4.72;;;;;;;17.76;77.61;97397.22;10332556;28;20033;-52
2023/07/30 01:19:04;;;;;;;5.85;4.80;;;;;;;17.84;77.85;97420.53;10323364;28;20053;-51
2023/07/30 01:24:03;;;;;;;6.43;4.80;;;;;;;17.79;78.03;97416.38;10291657;28;20542;-49
2023/07/30 01:29:07;;;;;;;6.22;4.68;;;;;;;17.74;78.12;97420.00;10288592;28;20057;-51
2023/07/30 01:34:08;;;;;;;6.93;4.85;;;;;;;17.70;78.28;97417.53;10286645;28;20211;-51
2023/07/30 01:39:10;;;;;;;6.65;4.85;;;;;;;17.58;78.41;97397.81;10287880;28;20205;-52
2023/07/30 01:44:09;;;;;;;6.93;5.25;;;;;;;17.65;79.68;97414.22;10288084;28;20064;-52
2023/07/30 01:49:08;;;;;;;7.50;5.35;;;;;;;17.39;80.94;97420.34;10287806;28;20025;-50
2023/07/30 01:54:07;;;;;;;7.15;5.13;;;;;;;17.25;81.63;97426.91;10287550;28;20576;-53
2023/07/30 01:59:06;;;;;;;7.25;5.50;;;;;;;17.22;81.40;97416.53;10287603;28;20034;-51
2023/07/30 02:04:04;;;;;;;;;;;;;;;17.21;80.89;97422.66;10286886;28;20026;-51
2023/07/30 02:09:03;;;;;;;8.07;5.23;;;;;;;17.18;80.89;97420.16;10287387;28;20012;-52
2023/07/30 02:14:02;;;;;;;8.45;4.78;;;;;;;17.13;81.22;97429.94;10286535;28;20036;-52
2023/07/30 02:19:01;;;;;;;;;;;;;;;17.02;82.35;97434.66;10286037;28;20069;-51
2023/07/30 02:24:00;;;;;;;7.83;4.87;;;;;;;17.01;82.21;97432.97;10286135;28;19952;-48
2023/07/30 02:29:00;;;;;;;;;;;;;;;16.97;82.34;97436.56;10287224;28;20052;-52
2023/07/30 02:33:59;;;;;;;;;;;;;;;16.85;83.21;97441.28;10285534;28;20024;-50
2023/07/30 02:38:57;;;;;;;6.63;5.10;;;;;;;16.67;83.49;97445.28;10285180;28;19957;-51
2023/07/30 02:43:56;;;;;;;;;;;;;;;16.65;83.15;97446.25;10285645;28;20113;-48
2023/07/30 02:48:55;;;;;;;8.33;5.43;;;;;;;16.66;82.79;97451.47;10284851;28;19956;-52
2023/07/30 02:54:01;;;;;;;7.72;4.97;;;;;;;16.69;82.39;97450.50;10284476;28;20029;-52
2023/07/30 02:59:01;;;;;;;8.27;5.53;;;;;;;16.58;82.98;97455.19;10284349;28;20116;-49
2023/07/30 03:04:00;;;;;;;6.63;5.30;;;;;;;15.99;82.69;97360.03;10284593;28;20586;-52
2023/07/30 03:08:59;;;;;;;9.70;5.57;;;;;;;16.54;82.90;97450.97;10284396;28;20452;-50
2023/07/30 03:13:58;;;;;;;7.75;5.43;;;;;;;16.53;83.20;97447.47;10283535;28;20557;-50
2023/07/30 03:18:57;;;;;;;7.53;5.35;;;;;;;16.51;83.27;97460.63;10316166;28;20415;-52
2023/07/30 03:23:56;;;;;;;;;;;;;;;16.54;83.53;97459.69;10283047;28;20038;-50
2023/07/30 03:28:55;;;;;;;7.73;5.43;;;;;;;16.51;83.84;97450.16;10284171;28;19913;-52
2023/07/30 03:33:53;;;;;;;;;;;;;;;16.57;83.80;97454.34;10283759;28;20052;-52
2023/07/30 03:38:52;;;;;;;6.83;5.23;;;;;;;16.63;83.63;97459.41;10283694;28;19914;-51
2023/07/30 03:43:51;;;;;;;;;;;;;;;15.69;83.34;97293.72;10284414;28;20105;-52
2023/07/30 03:48:50;;;;;;;13.73;6.60;;;;;;;16.66;83.30;97454.06;10283231;28;19949;-49
2023/07/30 03:53:49;;;;;;;;;;;;;;;16.72;83.57;97460.88;10283452;28;20034;-52
2023/07/30 03:58:48;;;;;;;9.47;6.63;;;;;;;16.81;83.19;97452.78;10283125;28;19917;-51
2023/07/30 04:03:49;;;;;;;;;;;;;;;16.86;83.15;97460.50;10282760;28;20022;-50
2023/07/30 04:08:48;;;;;;;8.38;6.32;;;;;;;16.89;82.97;97463.88;10283007;28;19953;-51
2023/07/30 04:13:47;;;;;;;8.35;6.80;;;;;;;16.89;83.18;97456.03;10323186;28;20553;-52
2023/07/30 04:18:46;;;;;;;11.60;6.50;;;;;;;17.00;82.85;97467.94;10316416;28;20085;-49
2023/07/30 04:23:45;;;;;;;9.70;6.25;;;;;;;17.01;82.90;97464.41;10284861;28;20112;-49
2023/07/30 04:28:44;;;;;;;7.40;6.63;;;;;;;17.08;82.66;97465.94;10289970;28;20065;-51
2023/07/30 04:33:42;;;;;;;9.95;6.22;;;;;;;17.18;82.55;97477.84;10291276;28;20038;-50
2023/07/30 04:38:41;;;;;;;;;;;;;;;17.23;82.46;97462.81;10288033;28;20901;-50
2023/07/30 04:43:40;;;;;;;11.20;6.00;;;;;;;17.31;82.37;97463.44;10288080;28;20422;-52
2023/07/30 04:48:40;;;;;;;8.30;6.43;;;;;;;17.36;81.65;97431.81;10289389;28;20067;-51
2023/07/30 04:53:39;;;;;;;11.43;6.60;;;;;;;17.59;81.83;97454.66;10287234;28;21340;-51
2023/07/30 04:58:38;;;;;;;9.80;7.13;;;;;;;17.52;81.69;97432.16;10288656;28;20470;-49
2023/07/30 05:03:37;;;;;;;;;;;;;;;17.81;81.49;97461.81;10284620;28;20121;-52
2023/07/30 05:08:36;;;;;;;11.13;6.03;;;;;;;17.91;81.34;97455.31;10288012;28;20027;-52
2023/07/30 05:13:35;;;;;;;11.20;6.63;;;;;;;17.92;82.48;97459.69;10285823;28;20034;-51
2023/07/30 05:18:34;;;;;;;8.45;6.45;;;;;;;18.08;81.57;97463.47;10285889;28;20046;-49
2023/07/30 05:23:33;;;;;;;9.63;7.10;;;;;;;18.31;80.91;97464.38;10286688;28;20153;-50
2023/07/30 05:28:32;;;;;;;9.68;6.90;;;;;;;18.40;80.12;97456.16;10289053;28;20039;-48
2023/07/30 05:33:31;;;;;;;11.95;6.78;;;;;;;18.61;79.86;97452.72;10290434;28;20080;-50
2023/07/30 05:38:30;;;;;;;8.80;6.72;;;;;;;18.93;78.79;97455.91;10285547;28;20030;-51
2023/07/30 05:43:29;;;;;;;8.48;6.70;;;;;;;19.06;78.35;97453.66;10288349;28;20402;-51
2023/07/30 05:48:28;;;;;;;8.20;6.10;;;;;;;19.27;77.22;97458.97;10289535;28;20053;-51
2023/07/30 05:53:27;;;;;;;7.63;5.57;;;;;;;18.81;75.91;97335.47;10289406;28;21811;-50
2023/07/30 05:58:26;;;;;;;8.50;5.85;;;;;;;19.75;74.72;97450.84;10289696;28;20033;-52
2023/07/30 06:03:25;;;;;;;7.82;5.70;;;;;;;19.99;73.16;97461.25;10288306;28;20029;-51
2023/07/30 06:08:24;;;;;;;7.57;5.32;;;;;;;20.11;71.54;97463.31;10288974;28;20117;-51
2023/07/30 06:13:23;;;;;;;8.00;5.50;;;;;;;20.44;70.17;97454.88;10288403;28;20128;-50
2023/07/30 06:18:22;;;;;;;10.77;6.50;;;;;;;20.73;68.99;97447.38;10289280;28;20033;-51
2023/07/30 06:23:21;;;;;;;8.38;5.30;;;;;;;20.85;69.25;97436.28;10288381;28;20041;-51
2023/07/30 06:28:20;;;;;;;8.05;5.50;;;;;;;21.10;67.27;97434.19;10286145;28;20057;-50
2023/07/30 06:33:19;;;;;;;9.68;5.43;;;;;;;21.38;67.26;97438.09;10284325;28;20476;-52
2023/07/30 06:38:18;;;;;;;13.38;8.25;;;;;;;21.64;66.38;97434.19;10284671;28;20061;-51
2023/07/30 06:43:17;;;;;;;9.10;5.80;;;;;;;22.03;64.50;97432.22;10280382;28;20025;-49
2023/07/30 06:48:16;;;;;;;9.93;5.65;;;;;;;22.26;62.45;97425.72;10284139;28;20512;-51
2023/07/30 06:53:15;;;;;;;8.43;4.45;;;;;;;22.36;61.19;97417.19;10293288;28;20149;-50
2023/07/30 06:58:14;;;;;;;5.22;4.00;;;;;;;22.54;59.76;97420.66;10283993;28;20125;-52
2023/07/30 07:03:13;;;;;;;5.68;4.65;;;;;;;22.73;57.72;97409.06;10283882;28;20014;-49
2023/07/30 07:08:12;;;;;;;6.55;4.30;;;;;;;22.85;56.75;97407.53;10283808;28;20036;-51
2023/07/30 07:13:11;;;;;;;4.63;4.03;;;;;;;23.11;55.86;97404.25;10282698;28;20380;-52
2023/07/30 07:18:10;;;;;;;6.00;4.05;;;;;;;23.51;53.61;97401.97;10282709;28;20137;-50
2023/07/30 07:23:09;;;;;;;6.28;3.65;;;;;;;23.81;53.37;97398.44;10282730;28;20068;-52
2023/07/30 07:28:08;;;;;;;8.35;4.55;;;;;;;24.08;53.01;97385.31;10283063;28;20065;-49
2023/07/30 07:33:11;;;;;;;9.18;5.03;;;;;;;24.28;51.66;97366.38;10282116;28;20034;-50
2023/07/30 07:38:10;;;;;;;9.00;4.65;;;;;;;24.70;51.61;97371.72;10283346;28;20536;-50
2023/07/30 07:43:09;;;;;;;9.48;5.13;;;;;;;24.98;50.02;97369.97;10282803;28;20512;-52
2023/07/30 07:48:08;;;;;;;5.97;4.22;;;;;;;25.09;48.52;97360.34;10282445;28;20109;-51
2023/07/30 07:53:07;;;;;;;7.82;4.63;;;;;;;25.39;48.37;97363.72;10280994;28;20121;-51
2023/07/30 07:58:06;;;;;;;10.02;4.38;;;;;;;25.74;47.94;97358.69;10285641;28;20048;-50
2023/07/30 08:03:05;;;;;;;5.13;3.78;;;;;;;25.93;45.46;97353.78;10290312;28;20028;-50
2023/07/30 08:08:04;;;;;;;5.40;3.80;;;;;;;26.28;44.97;97341.69;10291481;28;20049;-51
2023/07/30 08:13:03;;;;;;;8.20;4.53;;;;;;;26.58;44.78;97338.59;10289811;28;20149;-49
2023/07/30 08:18:02;;;;;;;6.75;4.75;;;;;;;26.82;44.16;97330.63;10291107;28;20120;-51
2023/07/30 08:23:01;;;;;;;9.70;4.70;;;;;;;27.07;42.78;97331.50;10290279;28;20529;-52
2023/07/30 08:28:00;;;;;;;6.28;3.60;;;;;;;27.35;42.72;97328.47;10291972;28;20456;-52
2023/07/30 08:32:59;;;;;;;4.85;4.20;;;;;;;27.61;41.63;97317.63;10292620;28;20053;-52
2023/07/30 08:37:58;;;;;;;4.70;3.72;;;;;;;27.87;41.15;97317.41;10293535;28;20486;-50
2023/07/30 08:42:57;;;;;;;6.43;3.92;;;;;;;28.02;39.67;97301.06;10291910;28;20113;-50
2023/07/30 08:47:56;;;;;;;4.93;3.95;;;;;;;28.34;39.77;97300.34;10291935;28;20508;-52
2023/07/30 08:52:57;;;;;;;7.47;3.67;;;;;;;28.64;39.51;97306.81;10291785;28;20514;-51
2023/07/30 08:57:58;;;;;;;4.38;3.75;;;;;;;28.90;38.72;97296.72;10291667;28;20064;-50
2023/07/30 09:03:00;;;;;;;5.45;3.97;;;;;;;28.93;36.60;97277.75;10292358;28;20458;-52
2023/07/30 09:07:59;;;;;;;5.05;3.78;;;;;;;29.16;32.92;97296.38;10292722;28;20054;-52
2023/07/30 09:12:58;;;;;;;5.07;3.92;;;;;;;29.52;32.87;97303.09;10290049;28;20029;-52
2023/07/30 09:17:58;;;;;;;6.40;3.80;;;;;;;29.74;31.92;97286.03;10292073;28;20506;-49
2023/07/30 09:22:58;;;;;;;5.07;3.70;;;;;;;29.97;29.41;97285.91;10291850;28;20065;-51
2023/07/30 09:27:58;;;;;;;5.07;3.90;;;;;;;30.04;29.24;97277.19;10288850;28;20073;-51
2023/07/30 09:32:58;;;;;;;4.50;3.67;;;;;;;30.22;29.27;97253.31;10286413;28;20488;-50
2023/07/30 09:38:02;;;;;;;4.32;3.60;;;;;;;30.47;29.62;97280.63;10286983;28;20068;-51
2023/07/30 09:43:05;;;;;;;4.82;3.40;;;;;;;30.56;29.63;97266.38;10286522;28;20433;-51
2023/07/30 09:48:05;;;;;;;6.40;4.55;;;;;;;30.81;30.25;97265.00;10287340;28;20061;-51
2023/07/30 09:53:04;;;;;;;7.07;4.30;;;;;;;30.90;31.20;97266.00;10287643;28;20130;-51
2023/07/30 09:58:03;;;;;;;4.78;3.80;;;;;;;31.06;30.85;97262.78;10286784;28;20066;-51
2023/07/30 10:03:03;;;;;;;7.13;4.40;;;;;;;31.09;30.54;97252.59;10287300;28;20037;-51
2023/07/30 10:08:08;;;;;;;6.00;3.97;;;;;;;31.35;30.69;97246.63;10286778;28;20121;-52
2023/07/30 10:13:09;;;;;;;6.10;4.40;;;;;;;31.19;29.69;97231.16;10285492;28;20120;-51
2023/07/30 10:18:09;;;;;;;4.80;4.10;;;;;;;31.05;30.36;97235.09;10285353;28;20152;-51
2023/07/30 10:23:07;;;;;;;7.75;4.25;;;;;;;31.46;30.01;97230.38;10295636;28;20130;-52
2023/07/30 10:28:06;;;;;;;5.57;4.18;;;;;;;31.68;31.02;97221.16;10285077;28;20098;-49
2023/07/30 10:33:09;;;;;;;5.15;4.60;;;;;;;31.98;30.94;97211.16;10285078;28;20519;-52
2023/07/30 10:38:24;;;;;;;4.53;3.88;;;;;;;32.10;30.00;97222.56;10284909;28;20500;-52
2023/07/30 10:43:27;;;;;;;5.75;4.60;;;;;;;32.01;29.40;97198.28;10284835;28;20784;-50
2023/07/30 10:48:33;;;;;;;4.80;4.30;;;;;;;32.21;30.53;97203.56;10284706;28;20116;-53
2023/07/30 10:53:33;;;;;;;6.80;4.43;;;;;;;32.58;29.82;97187.34;10284824;28;20117;-51
2023/07/30 10:58:33;;;;;;;5.10;4.32;;;;;;;32.51;28.73;97185.41;10284729;28;20130;-52
2023/07/30 11:03:33;;;;;;;6.85;3.95;;;;;;;32.60;28.71;97187.22;10284199;28;20065;-52
2023/07/30 11:08:43;;;;;;;6.22;4.20;;;;;;;32.74;29.70;97173.22;10283696;28;20478;-52
2023/07/30 11:13:45;;;;;;;5.05;4.38;;;;;;;32.43;28.79;97176.28;10283989;28;20069;-51
2023/07/30 11:18:46;;;;;;;6.57;4.40;;;;;;;32.18;28.58;97147.50;10283329;28;20076;-52
2023/07/30 11:23:46;;;;;;;5.47;4.10;;;;;;;32.33;28.69;97162.06;10283585;28;20061;-52
2023/07/30 11:28:45;;;;;;;4.88;4.20;;;;;;;32.42;28.78;97155.78;10283971;28;20058;-50
2023/07/30 11:33:46;;;;;;;8.45;5.10;;;;;;;32.40;28.70;97147.03;10282277;28;20473;-52
2023/07/30 11:38:46;;;;;;;5.28;4.45;;;;;;;32.12;28.76;97127.47;10283077;28;20750;-51
2023/07/30 11:43:45;;;;;;;5.82;4.53;;;;;;;32.30;28.12;97132.84;10301221;28;20080;-51
2023/07/30 11:48:50;;;;;;;4.57;4.07;;;;;;;32.83;27.91;97126.63;10293057;28;20100;-51
2023/07/30 11:53:55;;;;;;;6.07;4.43;;;;;;;33.08;27.09;97134.00;10282882;28;20137;-51
2023/07/30 11:58:57;;;;;;;7.07;5.20;;;;;;;33.20;28.28;97127.38;10283095;28;20471;-51
2023/07/30 12:03:58;;;;;;;5.63;4.65;;;;;;;33.28;27.53;97116.69;10283031;28;20518;-50
2023/07/30 12:08:58;;;;;;;6.53;5.18;;;;;;;33.33;26.50;97116.19;10282828;28;20076;-51
2023/07/30 12:13:57;;;;;;;5.63;4.45;;;;;;;33.47;25.91;97092.22;10282719;28;20117;-51
2023/07/30 12:18:56;;;;;;;5.55;4.35;;;;;;;33.83;25.90;97099.25;10281663;28;20148;-51
2023/07/30 12:23:55;;;;;;;11.55;4.65;;;;;;;33.96;27.07;97077.25;10283390;28;20191;-51
2023/07/30 12:28:54;;;;;;;5.72;4.25;;;;;;;34.18;26.93;97083.88;10285642;28;20040;-52
2023/07/30 12:33:53;;;;;;;5.70;4.35;;;;;;;34.38;26.50;97089.78;10284780;28;20132;-52
2023/07/30 12:38:53;;;;;;;6.22;4.32;;;;;;;34.35;27.19;97082.03;10285124;28;20026;-52
2023/07/30 12:43:53;;;;;;;8.88;5.10;;;;;;;34.53;26.55;97036.91;10285929;28;20054;-51
2023/07/30 12:48:52;;;;;;;6.78;4.50;;;;;;;34.48;25.76;97069.75;10291739;28;20064;-50
2023/07/30 12:53:51;;;;;;;4.80;4.22;;;;;;;34.32;25.29;97052.75;10292576;28;20073;-52
2023/07/30 12:58:50;;;;;;;5.28;4.43;;;;;;;34.56;25.75;97051.91;10292754;28;20065;-51
2023/07/30 13:03:51;;;;;;;7.05;4.93;;;;;;;34.49;25.06;97044.47;10292119;28;20032;-50
2023/07/30 13:08:50;;;;;;;6.53;4.63;;;;;;;34.34;25.46;97039.97;10290713;28;20065;-49
2023/07/30 13:13:49;;;;;;;4.93;4.28;;;;;;;34.29;25.72;97043.16;10291579;28;20022;-53
2023/07/30 13:18:48;;;;;;;6.57;4.68;;;;;;;34.22;26.07;97034.06;10290250;28;20057;-50
2023/07/30 13:23:47;;;;;;;5.57;4.50;;;;;;;34.46;26.33;97027.81;10291032;28;20545;-51
2023/07/30 13:28:46;;;;;;;4.70;4.07;;;;;;;34.23;25.64;97009.66;10288916;28;20457;-50
2023/07/30 13:33:46;;;;;;;5.07;3.92;;;;;;;34.06;25.81;97026.78;10286209;28;20603;-50
2023/07/30 13:38:46;;;;;;;4.53;4.10;;;;;;;33.84;26.66;97017.50;10287956;28;20136;-50
2023/07/30 13:43:45;;;;;;;5.00;4.32;;;;;;;33.60;26.97;97008.38;10287592;28;20061;-52
2023/07/30 13:48:44;;;;;;;5.50;4.47;;;;;;;33.91;26.76;97004.22;10287390;28;20065;-52
2023/07/30 13:53:43;;;;;;;7.10;4.35;;;;;;;34.06;26.21;97006.09;10286125;28;20597;-52
2023/07/30 13:58:42;;;;;;;5.82;4.38;;;;;;;34.01;26.76;96992.28;10282274;28;20112;-52
2023/07/30 14:03:41;;;;;;;4.97;4.47;;;;;;;34.35;26.55;96993.16;10283519;28;20325;-53
2023/07/30 14:08:40;;;;;;;5.25;4.45;;;;;;;34.29;25.98;96984.75;10283042;28;20413;-51
2023/07/30 14:13:39;;;;;;;5.20;4.20;;;;;;;34.27;26.14;96977.84;10284636;28;20550;-51
2023/07/30 14:18:39;;;;;;;5.85;4.65;;;;;;;34.17;27.54;96972.66;10285462;28;20133;-51
2023/07/30 14:23:38;;;;;;;6.20;4.75;;;;;;;34.22;27.89;96969.44;10285780;28;20502;-50
2023/07/30 14:28:37;;;;;;;6.88;4.90;;;;;;;34.05;27.76;96968.56;10284974;28;20072;-50
2023/07/30 14:33:36;;;;;;;7.75;5.00;;;;;;;33.78;28.14;96959.81;10285003;28;20436;-50
2023/07/30 14:38:35;;;;;;;6.60;5.22;;;;;;;33.46;29.34;96968.63;10284487;28;20479;-53
2023/07/30 14:43:34;;;;;;;5.82;4.80;;;;;;;33.47;28.18;96964.97;10285396;28;20107;-51
2023/07/30 14:48:33;;;;;;;8.10;5.22;;;;;;;33.46;28.62;96955.19;10284984;28;20462;-52
2023/07/30 14:53:32;;;;;;;5.95;5.30;;;;;;;33.50;29.21;96948.47;10283938;28;20425;-50
2023/07/30 14:58:31;;;;;;;6.45;4.60;;;;;;;33.40;29.07;96948.63;10284181;28;20112;-52
2023/07/30 15:03:30;;;;;;;6.20;5.15;;;;;;;33.13;29.03;96948.88;10284066;28;20044;-51
2023/07/30 15:08:29;;;;;;;5.97;5.10;;;;;;;32.91;29.21;96944.94;10283807;28;20042;-50
2023/07/30 15:13:28;;;;;;;6.90;4.90;;;;;;;32.85;29.49;96941.00;10283474;28;20393;-51
2023/07/30 15:18:27;;;;;;;10.77;5.57;;;;;;;32.81;29.82;96935.13;10283799;28;20048;-51
2023/07/30 15:23:26;;;;;;;9.05;5.90;;;;;;;32.61;29.72;96917.56;10276205;28;20030;-50
2023/07/30 15:28:25;;;;;;;7.97;5.30;;;;;;;32.47;29.84;96918.97;10281252;28;20029;-50
2023/07/30 15:33:24;;;;;;;9.25;6.07;;;;;;;32.77;30.51;96939.16;10281952;28;20136;-52
2023/07/30 15:38:23;;;;;;;8.13;5.93;;;;;;;32.62;30.71;96924.63;10282609;28;20026;-52
2023/07/30 15:43:22;;;;;;;7.80;6.18;;;;;;;32.74;30.67;96928.72;10282831;28;20041;-49
2023/07/30 15:48:21;;;;;;;6.70;5.82;;;;;;;32.38;30.64;96931.50;10283897;28;20184;-49
2023/07/30 15:53:20;;;;;;;8.90;5.82;;;;;;;32.47;31.19;96931.56;10282299;28;20148;-52
2023/07/30 15:58:19;;;;;;;6.45;5.72;;;;;;;32.37;31.39;96927.16;10281881;28;20026;-50
2023/07/30 16:03:18;;;;;;;7.38;6.13;;;;;;;32.46;31.89;96917.31;10282620;28;20137;-49
2023/07/30 16:08:17;;;;;;;7.40;6.20;;;;;;;32.29;31.02;96897.56;10281849;28;20036;-50
2023/07/30 16:13:16;;;;;;;7.30;6.32;;;;;;;32.25;30.86;96901.56;10280691;28;20038;-50
2023/07/30 16:18:15;;;;;;;7.65;5.80;;;;;;;32.13;30.79;96902.81;10271749;28;20156;-51
2023/07/30 16:23:14;;;;;;;7.32;5.93;;;;;;;32.22;31.16;96900.06;10288574;28;20100;-51
2023/07/30 16:28:13;;;;;;;8.70;6.43;;;;;;;31.77;31.49;96822.41;10280035;28;21408;-50
2023/07/30 16:33:13;;;;;;;7.82;6.68;;;;;;;32.11;31.50;96912.91;10285617;28;20464;-52
2023/07/30 16:38:13;;;;;;;8.35;5.93;;;;;;;31.86;31.17;96901.94;10286405;28;20065;-49
2023/07/30 16:43:13;;;;;;;8.20;5.70;;;;;;;31.73;31.28;96910.41;10288420;28;20076;-50
2023/07/30 16:48:12;;;;;;;7.40;6.10;;;;;;;31.56;31.83;96920.13;10286161;28;20080;-51
2023/07/30 16:53:11;;;;;;;8.00;5.95;;;;;;;31.51;32.29;96919.75;10285992;28;20040;-51
2023/07/30 16:58:10;;;;;;;8.35;6.28;;;;;;;31.33;32.92;96921.53;10285785;28;20459;-51
2023/07/30 17:03:09;;;;;;;8.15;6.28;;;;;;;31.25;32.59;96921.47;10285539;28;20125;-51
2023/07/30 17:08:11;;;;;;;7.10;5.65;;;;;;;31.02;33.22;96932.59;10282198;28;20029;-49
2023/07/30 17:13:10;;;;;;;8.75;6.60;;;;;;;30.86;34.31;96929.69;10286231;28;20558;-52
2023/07/30 17:18:09;;;;;;;8.05;6.40;;;;;;;30.69;34.63;96926.81;10284021;28;20142;-48
2023/07/30 17:23:09;;;;;;;10.00;7.18;;;;;;;30.70;35.97;96939.22;10281964;28;20426;-49
2023/07/30 17:28:08;;;;;;;10.70;7.88;;;;;;;30.53;36.90;96937.31;10287316;28;20527;-49
2023/07/30 17:33:06;;;;;;;10.30;7.40;;;;;;;30.27;38.26;96937.91;10258938;28;20562;-51
2023/07/30 17:38:05;;;;;;;8.90;6.82;;;;;;;30.00;38.62;96937.81;10290319;28;20541;-49
2023/07/30 17:43:05;;;;;;;9.25;6.40;;;;;;;29.74;39.16;96941.06;10290989;28;20539;-52
2023/07/30 17:48:04;;;;;;;11.20;7.35;;;;;;;29.49;39.92;96935.31;10290402;28;20659;-52
2023/07/30 17:53:03;;;;;;;9.55;8.25;;;;;;;29.24;40.54;96927.78;10286659;28;20057;-52
2023/07/30 17:58:02;;;;;;;44.47;29.00;;;;;;;28.98;41.38;96936.31;10286775;28;20036;-52
2023/07/30 18:03:01;;;;;;;12.60;9.75;;;;;;;28.71;42.12;96938.75;10285146;28;20123;-52
2023/07/30 18:08:00;;;;;;;11.80;8.32;;;;;;;28.59;42.57;96941.47;10284092;28;20519;-50
2023/07/30 18:12:59;;;;;;;9.80;8.35;;;;;;;28.42;43.33;96958.13;10285964;28;20026;-52
2023/07/30 18:17:58;;;;;;;10.75;8.35;;;;;;;28.21;43.51;96953.63;10285091;28;20069;-53
2023/07/30 18:22:57;;;;;;;12.15;7.90;;;;;;;27.98;44.69;96960.91;10283519;28;20034;-53
2023/07/30 18:27:56;;;;;;;7.57;6.72;;;;;;;27.64;46.39;96970.88;10283460;28;20037;-52
2023/07/30 18:32:55;;;;;;;8.40;6.95;;;;;;;27.24;47.33;96974.13;10279229;28;20121;-51
2023/07/30 18:37:54;;;;;;;10.90;7.13;;;;;;;27.07;47.55;96970.13;10281881;28;20034;-53
2023/07/30 18:42:53;;;;;;;9.35;6.63;;;;;;;27.05;47.90;96976.56;10282417;28;20109;-52
2023/07/30 18:47:53;;;;;;;8.30;7.35;;;;;;;27.06;47.97;96988.94;10280351;28;20030;-52
2023/07/30 18:52:52;;;;;;;10.82;8.15;;;;;;;26.95;48.69;96985.28;10281208;28;20120;-52
2023/07/30 18:57:51;;;;;;;13.13;9.20;;;;;;;26.85;50.47;96991.47;10279200;28;20033;-50
2023/07/30 19:02:50;;;;;;;10.70;9.60;;;;;;;26.73;50.81;96993.28;10278799;28;20034;-52
2023/07/30 19:07:49;;;;;;;11.25;9.50;;;;;;;26.63;51.46;96992.28;10279144;28;20638;-49
2023/07/30 19:12:48;;;;;;;11.63;9.75;;;;;;;26.52;51.87;96991.31;10281973;28;20036;-50
2023/07/30 19:17:47;;;;;;;10.48;8.80;;;;;;;26.42;51.54;96986.81;10280520;28;20048;-51
2023/07/30 19:22:46;;;;;;;11.85;9.18;;;;;;;26.05;51.95;96947.94;10280705;28;20115;-49
2023/07/30 19:27:44;;;;;;;12.13;9.80;;;;;;;26.18;52.42;96990.38;10278458;28;20491;-50
2023/07/30 19:32:43;;;;;;;12.27;10.15;;;;;;;26.17;52.61;96994.00;10279495;28;20419;-52
2023/07/30 19:37:42;;;;;;;14.52;9.02;;;;;;;26.06;52.81;97000.13;10278235;28;20586;-50
2023/07/30 19:42:41;;;;;;;11.55;9.27;;;;;;;25.88;53.47;96993.56;10279975;28;20515;-52
2023/07/30 19:47:40;;;;;;;9.88;8.85;;;;;;;25.78;53.57;96981.91;10276568;28;20507;-52
2023/07/30 19:52:39;;;;;;;13.98;9.00;;;;;;;25.74;53.85;97000.75;10280391;28;20475;-52
2023/07/30 19:57:38;;;;;;;11.43;8.43;;;;;;;25.71;54.01;97003.66;10290443;28;20498;-49
2023/07/30 20:02:37;;;;;;;11.50;9.02;;;;;;;25.67;54.55;97002.19;10292903;28;20041;-51
2023/07/30 20:07:36;;;;;;;12.32;9.52;;;;;;;25.53;54.67;96975.75;10290263;28;20100;-52
2023/07/30 20:12:35;;;;;;;15.60;9.55;;;;;;;25.68;54.70;97014.50;10290721;28;20060;-49
2023/07/30 20:17:34;;;;;;;10.35;9.07;;;;;;;25.64;54.36;97015.66;10290882;28;20125;-52
2023/07/30 20:22:33;;;;;;;12.50;9.10;;;;;;;25.59;54.86;97004.53;10292152;28;20116;-51
2023/07/30 20:27:32;;;;;;;11.13;8.50;;;;;;;25.56;54.85;97003.94;10289746;28;20117;-49
2023/07/30 20:32:31;;;;;;;11.55;8.77;;;;;;;25.43;55.52;97004.78;10291419;28;20168;-52
2023/07/30 20:37:30;;;;;;;11.18;9.20;;;;;;;25.24;56.40;97018.56;10292683;28;20073;-50
2023/07/30 20:42:29;;;;;;;11.63;9.38;;;;;;;24.84;58.89;97045.25;10294148;28;20400;-51
2023/07/30 20:47:28;;;;;;;12.63;9.27;;;;;;;24.45;59.74;97070.06;10291170;28;20098;-51
2023/07/30 20:52:27;;;;;;;11.43;9.68;;;;;;;23.63;62.83;97120.50;10294441;28;20128;-50
2023/07/30 20:57:27;;;;;;;11.20;9.63;;;;;;;23.26;63.77;97150.22;10293866;28;20054;-49
2023/07/30 21:02:26;;;;;;;10.13;8.63;;;;;;;23.28;64.01;97198.59;10318823;28;20113;-51
2023/07/30 21:07:25;;;;;;;15.32;9.90;;;;;;;23.15;71.84;97215.22;10293591;28;20030;-51
2023/07/30 21:12:24;;;;;;;14.95;11.38;;;;;;;22.30;80.79;97243.09;10288315;28;20080;-51
2023/07/30 21:17:23;;;;;;;17.50;13.63;;;;;;;21.43;87.42;97246.06;10288834;28;20069;-49
2023/07/30 21:22:22;;;;;;;16.65;14.95;;;;;;;21.06;90.42;97252.38;10292304;28;20112;-48
2023/07/30 21:27:21;;;;;;;18.80;16.80;;;;;;;21.02;92.16;97245.53;10289479;28;20013;-49
2023/07/30 21:32:20;;;;;;;18.60;16.70;;;;;;;21.10;93.89;97256.53;10287246;28;20048;-49
2023/07/30 21:37:19;;;;;;;18.67;16.77;;;;;;;21.21;95.50;97261.28;10287606;28;20037;-50
2023/07/30 21:42:18;;;;;;;18.05;16.15;;;;;;;21.31;96.12;97278.34;10287402;28;20068;-48
2023/07/30 21:47:17;;;;;;;19.60;17.45;;;;;;;21.35;96.79;97248.22;10286398;28;20547;-49
2023/07/30 21:52:32;;;;;;;17.83;16.10;;;;;;;21.18;98.05;97224.50;10287212;28;20430;-50
2023/07/30 21:57:30;;;;;;;17.35;15.68;;;;;;;20.93;98.52;97210.75;10287323;28;20088;-49
2023/07/30 22:02:29;;;;;;;18.95;17.05;;;;;;;21.23;98.24;97262.06;10281989;28;20037;-50
2023/07/30 22:07:28;;;;;;;20.90;18.75;;;;;;;21.17;98.88;97267.63;10282776;28;20373;-50
2023/07/30 22:12:27;;;;;;;18.77;16.88;;;;;;;21.15;99.10;97278.28;10280139;28;20184;-49
2023/07/30 22:17:26;;;;;;;18.33;16.58;;;;;;;21.24;99.14;97266.41;10281548;28;20048;-48
2023/07/30 22:22:26;;;;;;;17.48;15.77;;;;;;;21.19;99.21;97273.69;10282913;28;20028;-51
2023/07/30 22:27:25;;;;;;;16.95;15.32;;;;;;;21.14;98.52;97273.91;10283190;28;20490;-51
2023/07/30 22:32:24;;;;;;;16.15;14.63;;;;;;;21.01;96.30;97260.50;10285663;28;20397;-49
2023/07/30 22:37:23;;;;;;;16.52;14.93;;;;;;;21.20;97.37;97278.88;10281337;28;20041;-51
2023/07/30 22:42:22;;;;;;;15.45;13.90;;;;;;;21.29;97.03;97281.09;10282607;28;20030;-50
2023/07/30 22:47:21;;;;;;;18.25;15.38;;;;;;;21.37;97.00;97272.75;10281185;28;20050;-51
2023/07/30 22:52:20;;;;;;;15.55;13.63;;;;;;;21.40;96.52;97275.22;10281654;28;20030;-51
2023/07/30 22:57:19;;;;;;;13.07;11.82;;;;;;;21.44;95.84;97289.97;10282306;28;20469;-51
2023/07/30 23:02:18;;;;;;;14.02;12.57;;;;;;;21.48;95.17;97295.97;10283861;28;20028;-51
2023/07/30 23:07:17;;;;;;;14.23;12.88;;;;;;;21.52;94.79;97286.94;10283273;28;20026;-51
2023/07/30 23:12:16;;;;;;;16.98;15.18;;;;;;;21.47;93.90;97300.38;10280307;28;20319;-52